ジッダ の空港の天気 - METARとTAF

キング・アブドゥルアズィーズ国際空港(ジッダ) ( OEJN / JED ) - サウジアラビア ジッダ
飛行場実況気象(Metar)
観測時間11/18 14:00 AST (11/18 11:00 UTC)
風向・風速南 4m/s
視程8000m
天気現象
全天の4割程度の雲 雲底高度 1220m
気温33℃
湿度53%
気圧1010hPa
METAROEJN 181100Z 17008KT 8000 SCT040 33/22 Q1010 NOSIG
過去の天気等 Google飛行場航空写真 Wunderground天気予報

過去48時間のMETAR

飛行場予報(TAF)
発表時間: 11/18 14:00 AST (11/18 11:00 UTC)
予報対象時間: 18日15時 AST ~ 19日21時 AST
風向・風速西南西 6m/s
視程7,000m
全天の4割程度の雲 雲底高度 1,220m
18日21時 AST ~ 18日23時 AST に徐々に
風向・風速東 4m/s
18日21時 AST ~ 19日1時 AST に一時的に
視程4,000m
天気現象煙霧
TAF OEJN 181100Z 1812/1918 24012KT 7000 SCT040
BECMG 1818/1820 09008KT
TEMPO 1818/1822 4000 HZ